createdAt,value
2023-02-19T17:27:00.707Z,8.48
2023-02-19T17:29:28.174Z,8.35
2023-02-19T17:31:55.570Z,8.35
2023-02-19T17:34:23.070Z,8.31
2023-02-19T17:36:50.372Z,8.27
2023-02-19T17:39:18.764Z,8.23
2023-02-19T17:41:45.984Z,8.14
2023-02-19T17:44:13.329Z,8.09
2023-02-19T17:46:42.023Z,7.97
2023-02-19T17:49:12.996Z,7.92
2023-02-19T17:51:40.497Z,7.90
2023-02-19T17:54:08.495Z,7.76
2023-02-19T17:56:35.969Z,7.71
2023-02-19T17:59:03.500Z,7.62
2023-02-19T18:01:30.789Z,7.59
2023-02-19T18:03:58.104Z,7.57
2023-02-19T18:06:25.639Z,7.58
2023-02-19T18:08:53.961Z,7.52
2023-02-19T18:11:23.424Z,7.60
2023-02-19T18:13:52.642Z,7.67
2023-02-19T18:16:20.553Z,7.68
2023-02-19T18:18:48.708Z,7.57
2023-02-19T18:21:15.909Z,7.59
2023-02-19T18:23:43.354Z,7.58
2023-02-19T18:26:12.111Z,7.68
2023-02-19T18:28:40.484Z,7.64
2023-02-19T18:31:08.178Z,7.70
2023-02-19T18:33:35.644Z,7.71
2023-02-19T18:36:06.646Z,7.73
2023-02-19T18:38:34.043Z,7.82
2023-02-19T18:41:01.291Z,7.82
2023-02-19T18:43:28.670Z,7.95
2023-02-19T18:45:55.861Z,8.04
2023-02-19T18:48:23.095Z,7.99
2023-02-19T18:50:50.416Z,7.98
2023-02-19T18:53:17.955Z,8.01
2023-02-19T18:55:45.184Z,8.15
2023-02-19T18:58:12.778Z,8.18
2023-02-19T19:00:40.324Z,8.19
2023-02-19T19:03:13.324Z,8.31
2023-02-19T19:05:40.644Z,8.38
2023-02-19T19:08:08.164Z,8.48
2023-02-19T19:10:35.353Z,8.61
2023-02-19T19:13:02.744Z,8.64
2023-02-19T19:15:32.669Z,8.63
2023-02-19T19:17:59.991Z,8.60
2023-02-19T19:20:30.322Z,8.54
2023-02-19T19:22:57.690Z,8.41
2023-02-19T19:25:28.317Z,8.30
2023-02-19T19:27:56.334Z,8.26
2023-02-19T19:30:23.635Z,8.20
2023-02-19T19:32:52.670Z,8.11
2023-02-19T19:35:22.128Z,8.03
2023-02-19T19:37:49.982Z,8.01
2023-02-19T19:40:18.626Z,7.97
2023-02-19T19:42:46.735Z,7.92
2023-02-19T19:45:14.647Z,7.82
2023-02-19T19:47:46.107Z,7.73
2023-02-19T19:50:13.610Z,7.62
2023-02-19T19:52:40.938Z,7.57
2023-02-19T19:55:08.937Z,7.48
2023-02-19T19:57:37.366Z,7.38
2023-02-19T20:00:06.753Z,7.26
2023-02-19T20:02:34.032Z,7.20
2023-02-19T20:05:01.248Z,7.11
2023-02-19T20:07:28.517Z,7.05
2023-02-19T20:09:55.694Z,6.95
2023-02-19T20:12:22.890Z,6.90
2023-02-19T20:14:50.088Z,6.76
2023-02-19T20:17:17.399Z,6.67
2023-02-19T20:19:46.329Z,6.55
2023-02-19T20:22:13.665Z,6.48
2023-02-19T20:24:40.870Z,6.41
2023-02-19T20:27:08.772Z,6.20
2023-02-19T20:29:36.390Z,6.14
2023-02-19T20:32:03.999Z,5.99
2023-02-19T20:34:32.117Z,6.09
2023-02-19T20:36:59.622Z,6.18
2023-02-19T20:39:27.167Z,6.11
2023-02-19T20:41:55.050Z,6.18
2023-02-19T20:44:22.414Z,6.14
2023-02-19T20:46:51.977Z,6.13
2023-02-19T20:49:23.210Z,6.16
2023-02-19T20:52:00.335Z,6.15
2023-02-19T20:54:31.904Z,6.12
2023-02-19T20:57:02.478Z,6.06
2023-02-19T20:59:33.228Z,6.01
2023-02-19T21:02:03.403Z,6.05
2023-02-19T21:04:30.891Z,6.03
2023-02-19T21:06:59.046Z,5.86
2023-02-19T21:09:26.459Z,5.74
2023-02-19T21:11:54.096Z,5.80
2023-02-19T21:14:21.318Z,5.83
2023-02-19T21:16:48.843Z,5.84
2023-02-19T21:19:16.183Z,5.79
2023-02-19T21:21:43.450Z,5.74
2023-02-19T21:24:14.128Z,5.66
2023-02-19T21:26:43.267Z,5.66
2023-02-19T21:29:16.725Z,5.61
2023-02-19T21:31:47.872Z,5.61
2023-02-19T21:34:20.187Z,5.60
2023-02-19T21:36:47.589Z,5.51
2023-02-19T21:39:18.902Z,5.49
2023-02-19T21:41:46.782Z,5.49
2023-02-19T21:44:14.232Z,5.44
2023-02-19T21:46:41.716Z,5.41
2023-02-19T21:49:11.375Z,5.41
2023-02-19T21:51:41.898Z,5.39
2023-02-19T21:54:22.877Z,5.37
2023-02-19T21:56:51.092Z,5.40
2023-02-19T21:59:19.856Z,5.37
2023-02-19T22:01:47.685Z,5.41
2023-02-19T22:04:18.867Z,5.26
2023-02-19T22:06:46.297Z,5.36
2023-02-19T22:09:15.041Z,5.41
2023-02-19T22:11:42.485Z,5.37
2023-02-19T22:14:09.959Z,5.33
2023-02-19T22:16:37.209Z,5.33
2023-02-19T22:19:04.932Z,5.33
2023-02-19T22:21:33.906Z,5.27
2023-02-19T22:24:03.040Z,5.20
2023-02-19T22:26:35.230Z,5.14
2023-02-19T22:29:03.784Z,5.07
2023-02-19T22:31:33.193Z,5.04
2023-02-19T22:34:00.665Z,5.00
2023-02-19T22:36:31.453Z,4.97
2023-02-19T22:39:00.658Z,4.96
2023-02-19T22:41:29.034Z,4.95
2023-02-19T22:48:03.102Z,4.88
2023-02-19T22:50:30.548Z,4.91
2023-02-19T22:52:58.051Z,4.87
2023-02-19T22:55:25.278Z,4.91
2023-02-19T22:57:52.638Z,4.91
2023-02-19T23:00:21.652Z,4.94
2023-02-19T23:02:49.298Z,4.94
2023-02-19T23:05:17.195Z,4.89
2023-02-19T23:07:45.923Z,4.83
2023-02-19T23:14:27.991Z,4.62
2023-02-19T23:16:55.307Z,4.59
2023-02-19T23:19:22.581Z,4.55
2023-02-19T23:21:50.340Z,4.54
2023-02-19T23:28:35.748Z,4.39
2023-02-19T23:31:03.440Z,4.41
2023-02-19T23:33:30.731Z,4.38
2023-02-19T23:35:58.108Z,4.34
2023-02-19T23:38:25.305Z,4.38
2023-02-19T23:40:52.506Z,4.31
2023-02-19T23:43:20.016Z,4.24
2023-02-19T23:49:53.606Z,4.18
2023-02-19T23:52:21.872Z,4.14
2023-02-19T23:54:49.100Z,4.09
2023-02-19T23:57:16.473Z,4.05
2023-02-19T23:59:43.784Z,4.04
